King City, Oregon
Current Conditions -  °F | °C
As of 9:53 PM on Saturday 25 Oct 2014 (Local Time) from KHIO Reporting Station
Overcast Overcast  
Wind Chill: 52°   Ceiling: 3700
Heat Index: 52°   Visibility: 10mi
Dew Point: 48°   Wind: 6mph
Humidity: 86%   Direction: 210°SSW
Pressure: 29.84"   Gusts: NA
Location:  45.4077°N, 122.809°W
Report Text: KHIO 260453Z 21005KT 10SM BKN037 OVC047 11/09 A2984 RMK AO2 SLP104 T01110089
Loading
Personal Weather Stations






























Interactive Weather Map
Tropical Storm Tracking
New forecast layout! Learn more

10-Day Weather Forecast

Advertisements
Track Severe Weather on mobile